Waldheim, Canada
Current Conditions -  °F | °C
As of 12:00 PM on Sunday 25 Jan 2015 (Local Time) from CYXE Reporting Station
Broken Clouds Broken Clouds  
Wind Chill: 26°   Ceiling: 9500
Heat Index: 36°   Visibility: 15mi
Dew Point: 28°   Wind: 15mph
Humidity: 75%   Direction: 190°S
Pressure: 29.68"   Gusts: 21mph
Location:  52.62°N, 106.65°W
Report Text: CYXE 251800Z 19013G18KT 15SM BKN095 02/M02 A2968 RMK AC7 PRESFR SLP078
Loading
Personal Weather Stations






























Interactive Weather Map New forecast layout! Learn more

10-Day Weather Forecast

Advertisements
Track Severe Weather on mobile